Time;durP1;ratioP1;P1;durP2;ratioP2;P2;SDS_P1;SDS_P2;PMS_P1;PMS_P2;Temp;Humidity;BMP_temperature;BMP_pressure;BME280_temperature;BME280_humidity;BME280_pressure;Samples;Min_cycle;Max_cycle;Signal;HPM_P1;HPM_P2
2023/11/01 00:01:23;;;;;;;16.88;11.77;;;;;;;4.22;100.00;95646.88;5083022;28;20028;-65
2023/11/01 00:03:49;;;;;;;10.77;9.68;;;;;;;4.22;100.00;95653.88;5082233;28;20147;-65
2023/11/01 00:06:14;;;;;;;16.00;10.07;;;;;;;4.18;100.00;95648.00;5079918;28;20052;-65
2023/11/01 00:08:40;;;;;;;10.35;8.98;;;;;;;4.16;100.00;95652.50;5077497;28;20048;-65
2023/11/01 00:11:05;;;;;;;9.05;7.47;;;;;;;4.11;100.00;95647.59;5079114;28;20024;-65
2023/11/01 00:13:31;;;;;;;10.10;9.20;;;;;;;4.13;100.00;95650.91;5084384;28;20024;-65
2023/11/01 00:15:57;;;;;;;9.38;8.50;;;;;;;4.11;100.00;95642.38;5079360;28;20451;-65
2023/11/01 00:18:22;;;;;;;10.23;8.75;;;;;;;4.05;100.00;95642.78;5074000;28;20640;-65
2023/11/01 00:20:48;;;;;;;9.15;8.10;;;;;;;3.98;100.00;95634.56;5084208;28;20031;-65
2023/11/01 00:23:13;;;;;;;8.23;6.20;;;;;;;3.87;100.00;95634.44;5085312;28;20110;-65
2023/11/01 00:25:40;;;;;;;7.25;6.57;;;;;;;3.86;100.00;95636.19;5090415;28;20024;-65
2023/11/01 00:28:06;;;;;;;6.10;5.50;;;;;;;3.90;100.00;95636.00;5076944;28;20032;-65
2023/11/01 00:30:31;;;;;;;6.90;6.22;;;;;;;3.97;100.00;95638.09;5074607;28;20099;-65
2023/11/01 00:32:56;;;;;;;10.50;8.98;;;;;;;4.03;100.00;95631.66;5083335;28;20036;-65
2023/11/01 00:35:22;;;;;;;9.15;8.35;;;;;;;4.03;100.00;95625.59;5078097;28;20027;-65
2023/11/01 00:37:48;;;;;;;12.02;11.10;;;;;;;3.97;100.00;95622.47;5075898;28;20021;-65
2023/11/01 00:40:13;;;;;;;9.88;9.07;;;;;;;3.96;100.00;95622.56;5077814;28;20031;-65
2023/11/01 00:42:39;;;;;;;8.07;7.35;;;;;;;3.95;100.00;95621.75;5072453;28;20016;-65
2023/11/01 00:45:05;;;;;;;5.85;5.35;;;;;;;3.88;100.00;95623.09;5085661;28;20027;-65
2023/11/01 00:47:31;;;;;;;5.13;4.72;;;;;;;3.88;100.00;95620.50;5074491;28;20024;-65
2023/11/01 00:49:57;;;;;;;5.90;5.40;;;;;;;3.89;100.00;95618.69;5088037;28;20664;-65
2023/11/01 00:52:23;;;;;;;5.65;5.25;;;;;;;3.87;100.00;95617.03;5082509;28;20544;-65
2023/11/01 00:54:48;;;;;;;9.05;8.30;;;;;;;3.87;100.00;95614.44;5078232;28;20052;-65
2023/11/01 00:57:13;;;;;;;11.25;4.85;;;;;;;3.83;100.00;95615.56;5082090;28;20112;-65
2023/11/01 00:59:39;;;;;;;5.78;5.30;;;;;;;3.84;100.00;95606.81;5072981;28;20027;-65
2023/11/01 01:02:04;;;;;;;5.13;4.63;;;;;;;3.83;100.00;95607.75;5077938;28;20407;-65
2023/11/01 01:04:30;;;;;;;7.72;3.50;;;;;;;3.89;100.00;95608.28;5076880;28;20020;-66
2023/11/01 01:06:56;;;;;;;3.50;3.17;;;;;;;3.85;100.00;95603.28;5073687;28;20021;-65
2023/11/01 01:09:21;;;;;;;4.53;3.10;;;;;;;3.88;100.00;95599.66;5079650;28;20322;-65
2023/11/01 01:11:47;;;;;;;3.42;3.15;;;;;;;3.84;100.00;95586.00;5080792;28;20040;-65
2023/11/01 01:14:12;;;;;;;3.80;3.33;;;;;;;3.83;100.00;95580.88;5081122;28;20027;-65
2023/11/01 01:16:37;;;;;;;4.88;4.00;;;;;;;3.86;100.00;95570.25;5079032;28;20032;-65
2023/11/01 01:19:03;;;;;;;8.05;3.05;;;;;;;3.85;100.00;95573.78;5081894;28;20036;-65
2023/11/01 01:21:29;;;;;;;3.65;3.30;;;;;;;3.82;100.00;95576.59;5083492;28;20021;-65
2023/11/01 01:23:54;;;;;;;3.42;2.92;;;;;;;3.80;100.00;95566.31;5076893;28;20088;-65
2023/11/01 01:26:20;;;;;;;3.25;2.72;;;;;;;3.85;100.00;95568.56;5088076;28;20032;-65
2023/11/01 01:28:45;;;;;;;2.88;2.28;;;;;;;3.84;100.00;95565.16;5079262;28;20476;-65
2023/11/01 01:31:10;;;;;;;2.22;2.13;;;;;;;3.86;100.00;95559.81;5059551;28;20060;-65
2023/11/01 01:33:36;;;;;;;2.15;1.95;;;;;;;3.90;100.00;95556.09;5079820;28;20051;-65
2023/11/01 01:36:01;;;;;;;5.18;1.90;;;;;;;3.95;100.00;95551.41;5084191;28;20028;-65
2023/11/01 01:38:26;;;;;;;2.00;1.90;;;;;;;4.00;100.00;95558.91;5086239;28;20028;-65
2023/11/01 01:40:52;;;;;;;2.30;2.10;;;;;;;4.03;100.00;95543.06;5082090;28;20034;-65
2023/11/01 01:43:19;;;;;;;3.63;2.28;;;;;;;4.05;100.00;95535.13;5088121;28;20453;-65
2023/11/01 01:45:47;;;;;;;16.05;2.10;;;;;;;3.98;100.00;95527.75;5087604;28;20666;-65
2023/11/01 01:48:13;;;;;;;3.22;2.03;;;;;;;3.94;100.00;95510.66;5085240;28;20028;-65
2023/11/01 01:50:39;;;;;;;4.00;3.70;;;;;;;3.93;100.00;95498.59;5081146;28;20032;-65
2023/11/01 01:53:04;;;;;;;3.20;2.90;;;;;;;3.89;100.00;95491.91;5081596;28;20513;-65
2023/11/01 01:55:30;;;;;;;3.92;2.22;;;;;;;3.90;100.00;95480.56;5080179;28;20024;-65
2023/11/01 01:57:57;;;;;;;1.55;1.48;;;;;;;3.89;100.00;95489.31;5084210;28;20272;-65
2023/11/01 02:00:24;;;;;;;4.95;1.67;;;;;;;3.90;100.00;95482.31;5085567;28;20089;-65
2023/11/01 02:02:52;;;;;;;4.10;2.28;;;;;;;3.88;100.00;95485.03;5075815;28;20021;-65
2023/11/01 02:05:18;;;;;;;9.43;4.65;;;;;;;4.06;100.00;95482.09;5088802;28;20024;-65
2023/11/01 02:07:44;;;;;;;7.35;5.10;;;;;;;4.03;100.00;95477.09;5086752;28;20031;-65
2023/11/01 02:10:14;;;;;;;5.00;4.05;;;;;;;3.90;100.00;95477.97;5080208;28;20063;-65
2023/11/01 02:12:42;;;;;;;7.10;4.63;;;;;;;3.91;100.00;95473.56;5085270;28;20031;-65
2023/11/01 02:15:08;;;;;;;5.40;4.05;;;;;;;3.86;100.00;95476.47;5084061;28;20025;-65
2023/11/01 02:17:33;;;;;;;6.50;3.53;;;;;;;3.85;100.00;95461.78;5076804;28;20027;-65
2023/11/01 02:20:00;;;;;;;3.92;3.53;;;;;;;3.85;100.00;95453.97;5078420;28;20050;-65
2023/11/01 02:22:26;;;;;;;11.63;7.45;;;;;;;3.80;100.00;95462.13;5082098;28;20020;-65
2023/11/01 02:24:53;;;;;;;4.68;3.95;;;;;;;3.81;100.00;95460.34;5077485;28;20023;-65
2023/11/01 02:27:18;;;;;;;4.18;2.80;;;;;;;3.80;100.00;95456.94;5080321;28;20443;-65
2023/11/01 02:29:44;;;;;;;2.15;1.73;;;;;;;3.73;100.00;95460.88;5081165;28;20073;-66
2023/11/01 02:32:09;;;;;;;4.32;1.60;;;;;;;3.73;100.00;95459.09;5079385;28;20129;-65
2023/11/01 02:34:35;;;;;;;2.10;2.00;;;;;;;3.79;100.00;95463.06;5086724;28;20079;-65
2023/11/01 02:37:01;;;;;;;1.88;1.70;;;;;;;3.71;100.00;95450.56;5080519;28;20458;-65
2023/11/01 02:39:26;;;;;;;5.03;1.90;;;;;;;3.68;100.00;95453.41;5079112;28;20119;-65
2023/11/01 02:41:52;;;;;;;1.80;1.70;;;;;;;3.66;100.00;95455.28;5078495;28;20034;-65
2023/11/01 02:44:17;;;;;;;1.73;1.63;;;;;;;3.63;100.00;95445.03;5078495;28;20020;-65
2023/11/01 02:46:43;;;;;;;2.15;1.95;;;;;;;3.60;100.00;95445.25;5075928;28;20485;-65
2023/11/01 02:49:08;;;;;;;2.08;1.80;;;;;;;3.52;100.00;95443.16;5077368;28;20025;-65
2023/11/01 02:51:33;;;;;;;1.48;1.40;;;;;;;3.50;100.00;95437.25;5076220;28;20022;-65
2023/11/01 02:53:59;;;;;;;1.50;1.40;;;;;;;3.51;100.00;95435.50;5077301;28;20051;-65
2023/11/01 02:56:24;;;;;;;4.30;2.00;;;;;;;3.54;100.00;95432.66;5091647;28;20115;-65
2023/11/01 02:58:50;;;;;;;1.55;1.45;;;;;;;3.55;100.00;95429.97;5083482;28;20501;-65
2023/11/01 03:01:16;;;;;;;5.18;1.67;;;;;;;3.61;100.00;95426.09;5077259;28;20107;-65
2023/11/01 03:03:42;;;;;;;1.98;1.80;;;;;;;3.65;100.00;95431.94;5082418;28;20032;-65
2023/11/01 03:06:07;;;;;;;3.47;1.92;;;;;;;3.63;100.00;95424.22;5079415;28;20029;-65
2023/11/01 03:08:34;;;;;;;1.60;1.60;;;;;;;3.61;100.00;95420.88;5079075;28;20040;-65
2023/11/01 03:10:59;;;;;;;5.43;1.75;;;;;;;3.53;100.00;95416.19;5074272;28;20051;-65
2023/11/01 03:13:25;;;;;;;2.67;1.65;;;;;;;3.50;100.00;95418.22;5082573;28;20029;-65
2023/11/01 03:15:50;;;;;;;6.75;1.60;;;;;;;3.55;100.00;95416.13;5077641;28;20063;-65
2023/11/01 03:18:15;;;;;;;1.77;1.67;;;;;;;3.60;100.00;95414.00;5075331;28;20047;-65
2023/11/01 03:20:41;;;;;;;3.05;1.40;;;;;;;3.60;100.00;95406.22;5080875;28;20020;-65
2023/11/01 03:23:06;;;;;;;2.45;1.60;;;;;;;3.58;100.00;95408.09;5077252;28;20115;-65
2023/11/01 03:25:32;;;;;;;1.70;1.60;;;;;;;3.56;100.00;95402.16;5081729;28;20025;-65
2023/11/01 03:27:57;;;;;;;3.20;1.80;;;;;;;3.56;100.00;95397.78;5087606;28;20059;-65
2023/11/01 03:30:23;;;;;;;2.28;2.03;;;;;;;3.48;100.00;95400.06;5084252;28;20044;-65
2023/11/01 03:32:49;;;;;;;2.25;2.10;;;;;;;3.48;100.00;95396.66;5078985;28;20538;-65
2023/11/01 03:35:14;;;;;;;4.53;2.88;;;;;;;3.52;100.00;95395.50;5089150;28;20499;-65
2023/11/01 03:37:40;;;;;;;4.95;2.75;;;;;;;3.55;100.00;95390.94;5080194;28;20020;-65
2023/11/01 03:40:07;;;;;;;2.88;2.67;;;;;;;3.52;100.00;95378.09;5079520;28;20044;-65
2023/11/01 03:42:32;;;;;;;4.10;2.10;;;;;;;3.52;100.00;95370.28;5075639;28;20028;-65
2023/11/01 03:44:58;;;;;;;1.98;1.88;;;;;;;3.52;100.00;95365.09;5074206;28;20024;-65
2023/11/01 03:47:23;;;;;;;2.30;2.20;;;;;;;3.46;100.00;95354.28;5088915;28;20075;-65
2023/11/01 03:49:49;;;;;;;2.38;2.10;;;;;;;3.43;100.00;95352.72;5086178;28;20027;-65
2023/11/01 03:52:14;;;;;;;2.00;1.90;;;;;;;3.43;100.00;95353.56;5094614;28;20023;-66
2023/11/01 03:54:40;;;;;;;2.70;2.50;;;;;;;3.49;100.00;95354.88;5084588;28;20020;-65
2023/11/01 03:57:06;;;;;;;2.20;2.10;;;;;;;3.43;100.00;95345.75;5079707;28;20028;-65
2023/11/01 03:59:32;;;;;;;6.53;3.47;;;;;;;3.40;100.00;95347.72;5075351;28;20040;-65
2023/11/01 04:01:58;;;;;;;2.97;2.78;;;;;;;3.41;100.00;95349.41;5088205;28;20028;-65
2023/11/01 04:04:24;;;;;;;2.55;2.10;;;;;;;3.41;100.00;95352.81;5085317;28;20039;-65
2023/11/01 04:06:49;;;;;;;4.05;2.30;;;;;;;3.41;100.00;95344.19;5076290;28;20020;-65
2023/11/01 04:09:15;;;;;;;2.33;2.10;;;;;;;3.41;100.00;95337.19;5077470;28;20509;-65
2023/11/01 04:11:41;;;;;;;2.15;2.05;;;;;;;3.36;100.00;95334.09;5079375;28;20578;-65
2023/11/01 04:14:06;;;;;;;2.00;1.90;;;;;;;3.36;100.00;95330.66;5074575;28;20461;-66
2023/11/01 04:16:32;;;;;;;2.00;1.95;;;;;;;3.34;100.00;95335.97;5087660;28;20081;-65
2023/11/01 04:18:57;;;;;;;3.13;1.95;;;;;;;3.35;100.00;95332.44;5086043;28;20020;-66
2023/11/01 04:21:23;;;;;;;3.75;2.10;;;;;;;3.36;100.00;95333.28;5079247;28;20032;-65
2023/11/01 04:23:49;;;;;;;2.00;1.90;;;;;;;3.33;100.00;95329.09;5085683;28;20088;-65
2023/11/01 04:26:15;;;;;;;2.30;2.20;;;;;;;3.38;100.00;95326.19;5086006;28;20078;-66
2023/11/01 04:28:40;;;;;;;2.17;2.08;;;;;;;3.38;100.00;95327.00;5075453;28;20048;-65
2023/11/01 04:31:06;;;;;;;2.30;2.10;;;;;;;3.38;100.00;95328.78;5076143;28;20031;-65
2023/11/01 04:33:31;;;;;;;2.60;2.40;;;;;;;3.39;100.00;95320.84;5076935;28;20074;-65
2023/11/01 04:35:57;;;;;;;3.00;2.80;;;;;;;3.39;100.00;95315.66;5074035;28;20020;-65
2023/11/01 04:38:23;;;;;;;3.40;2.33;;;;;;;3.40;100.00;95308.69;5077117;28;20032;-65
2023/11/01 04:40:51;;;;;;;3.97;2.30;;;;;;;3.43;100.00;95303.28;5087870;28;20678;-65
2023/11/01 04:43:20;;;;;;;2.78;2.33;;;;;;;3.39;100.00;95302.66;5090672;28;20411;-65
2023/11/01 04:45:46;;;;;;;3.03;2.70;;;;;;;3.39;100.00;95296.63;5089630;28;20500;-65
2023/11/01 04:48:12;;;;;;;2.28;2.17;;;;;;;3.43;100.00;95301.50;5082579;28;20032;-65
2023/11/01 04:50:37;;;;;;;5.85;2.38;;;;;;;3.49;100.00;95297.63;5088519;28;20033;-65
2023/11/01 04:53:02;;;;;;;3.15;2.50;;;;;;;3.55;100.00;95302.41;5082082;28;20060;-65
2023/11/01 04:55:28;;;;;;;3.88;2.60;;;;;;;3.60;100.00;95304.69;5089477;28;20028;-65
2023/11/01 04:57:53;;;;;;;2.30;2.20;;;;;;;3.59;100.00;95303.00;5085802;28;20024;-66
2023/11/01 05:00:19;;;;;;;5.00;2.38;;;;;;;3.57;100.00;95304.91;5090005;28;20111;-65
2023/11/01 05:02:45;;;;;;;6.32;2.40;;;;;;;3.47;100.00;95296.91;5086559;28;20054;-65
2023/11/01 05:05:12;;;;;;;4.13;3.00;;;;;;;3.49;100.00;95296.81;5081026;28;20454;-65
2023/11/01 05:07:38;;;;;;;3.92;3.53;;;;;;;3.54;100.00;95305.97;5086293;28;20033;-65
2023/11/01 05:10:03;;;;;;;9.88;3.63;;;;;;;3.58;100.00;95291.78;5092069;28;20063;-65
2023/11/01 05:12:29;;;;;;;4.45;4.15;;;;;;;3.64;100.00;95281.88;5088584;28;20020;-65
2023/11/01 05:14:55;;;;;;;5.68;4.57;;;;;;;3.68;100.00;95291.97;5089405;28;20028;-66
2023/11/01 05:17:20;;;;;;;6.07;4.05;;;;;;;3.68;100.00;95281.56;5078272;28;20112;-66
2023/11/01 05:19:46;;;;;;;5.90;3.95;;;;;;;3.70;100.00;95282.28;5091263;28;20032;-65
2023/11/01 05:22:11;;;;;;;4.43;4.03;;;;;;;3.70;100.00;95271.84;5091946;28;20585;-66
2023/11/01 05:24:37;;;;;;;4.55;4.20;;;;;;;3.76;100.00;95267.13;5092389;28;20056;-65
2023/11/01 05:27:02;;;;;;;7.68;3.72;;;;;;;3.78;100.00;95263.50;5091545;28;20016;-65
2023/11/01 05:29:28;;;;;;;3.40;3.10;;;;;;;3.77;100.00;95258.38;5081083;28;20023;-65
2023/11/01 05:31:53;;;;;;;3.45;3.15;;;;;;;3.81;100.00;95260.66;5087293;28;20032;-66
2023/11/01 05:34:19;;;;;;;3.40;3.10;;;;;;;3.84;100.00;95250.03;5077737;28;20017;-66
2023/11/01 05:36:44;;;;;;;3.60;2.53;;;;;;;3.90;100.00;95246.16;5079038;28;20036;-66
2023/11/01 05:39:09;;;;;;;3.90;2.55;;;;;;;3.94;100.00;95242.38;5078805;28;20056;-66
2023/11/01 05:41:36;;;;;;;3.78;2.72;;;;;;;3.97;100.00;95238.69;5083153;28;20485;-65
2023/11/01 05:44:01;;;;;;;2.45;2.15;;;;;;;3.96;100.00;95242.25;5081063;28;20084;-65
2023/11/01 05:46:27;;;;;;;3.70;3.08;;;;;;;3.93;100.00;95240.72;5086473;28;20648;-65
2023/11/01 05:48:52;;;;;;;2.53;2.35;;;;;;;3.95;100.00;95230.16;5093846;28;20021;-66
2023/11/01 05:51:17;;;;;;;2.70;2.10;;;;;;;3.97;100.00;95233.47;5087880;28;20032;-65
2023/11/01 05:53:44;;;;;;;3.28;2.97;;;;;;;4.03;100.00;95229.59;5078327;28;20605;-66
2023/11/01 05:56:10;;;;;;;3.00;2.78;;;;;;;4.03;100.00;95229.59;5091991;28;20056;-66
2023/11/01 05:58:36;;;;;;;2.60;2.40;;;;;;;4.05;100.00;95232.94;5077056;28;20044;-66
2023/11/01 06:01:01;;;;;;;3.45;2.45;;;;;;;4.05;100.00;95241.59;5084823;28;20081;-66
2023/11/01 06:03:26;;;;;;;3.33;2.72;;;;;;;4.01;100.00;95240.16;5085027;28;20040;-65
2023/11/01 06:05:52;;;;;;;2.53;2.33;;;;;;;3.95;100.00;95228.41;5076261;28;20023;-66
2023/11/01 06:08:18;;;;;;;2.92;2.40;;;;;;;3.94;100.00;95233.72;5082043;28;20024;-65
2023/11/01 06:10:44;;;;;;;2.83;2.63;;;;;;;3.96;100.00;95231.81;5079431;28;20032;-65
2023/11/01 06:13:10;;;;;;;2.78;2.38;;;;;;;3.94;100.00;95233.72;5079274;28;20453;-66
2023/11/01 06:15:37;;;;;;;2.88;2.67;;;;;;;3.91;100.00;95240.00;5077064;28;20035;-65
2023/11/01 06:18:05;;;;;;;2.70;2.50;;;;;;;3.87;100.00;95228.16;5087738;28;20024;-65
2023/11/01 06:20:34;;;;;;;3.58;2.35;;;;;;;3.89;100.00;95236.69;5077352;28;20032;-66
2023/11/01 06:23:00;;;;;;;5.82;2.97;;;;;;;3.86;100.00;95229.91;5092782;28;20044;-65
2023/11/01 06:25:25;;;;;;;2.83;2.63;;;;;;;3.84;100.00;95230.94;5078319;28;20454;-65
2023/11/01 06:27:51;;;;;;;4.57;4.28;;;;;;;3.84;100.00;95228.34;5078395;28;20032;-66
2023/11/01 06:30:16;;;;;;;14.25;11.90;;;;;;;3.86;100.00;95234.28;5086172;28;20097;-66
2023/11/01 06:32:42;;;;;;;11.10;9.98;;;;;;;3.87;100.00;95244.59;5094331;28;20125;-65
2023/11/01 06:35:08;;;;;;;6.35;4.15;;;;;;;3.90;100.00;95238.34;5075118;28;20107;-65
2023/11/01 06:37:34;;;;;;;3.45;3.25;;;;;;;3.91;100.00;95229.56;5077528;28;20020;-65
2023/11/01 06:40:00;;;;;;;7.32;4.95;;;;;;;3.90;100.00;95227.91;5081007;28;20480;-66
2023/11/01 06:42:26;;;;;;;4.47;4.15;;;;;;;3.92;100.00;95241.66;5085103;28;20047;-66
2023/11/01 06:44:51;;;;;;;5.50;4.97;;;;;;;3.97;100.00;95238.69;5089588;28;20048;-65
2023/11/01 06:47:16;;;;;;;4.90;4.00;;;;;;;3.98;100.00;95250.81;5086036;28;20036;-65
2023/11/01 06:49:42;;;;;;;6.70;4.10;;;;;;;4.05;100.00;95252.00;5076340;28;20040;-65
2023/11/01 06:52:07;;;;;;;6.95;4.28;;;;;;;4.08;100.00;95248.31;5079515;28;20047;-66
2023/11/01 06:54:36;;;;;;;3.83;3.53;;;;;;;4.12;100.00;95253.22;5095598;28;20771;-65
2023/11/01 06:57:02;;;;;;;3.67;3.17;;;;;;;4.12;100.00;95248.00;5080762;28;20025;-65
2023/11/01 06:59:27;;;;;;;3.30;3.00;;;;;;;4.11;100.00;95258.56;5086386;28;20106;-65
2023/11/01 07:01:53;;;;;;;3.50;3.10;;;;;;;4.11;100.00;95255.94;5080621;28;20121;-66
2023/11/01 07:04:18;;;;;;;5.50;3.85;;;;;;;4.11;100.00;95261.16;5085896;28;20033;-65
2023/11/01 07:06:43;;;;;;;6.15;5.55;;;;;;;4.14;100.00;95264.34;5076243;28;20032;-65
2023/11/01 07:09:10;;;;;;;6.15;5.65;;;;;;;4.16;100.00;95261.63;5078166;28;20501;-66
2023/11/01 07:11:36;;;;;;;5.68;4.88;;;;;;;4.20;100.00;95270.88;5076424;28;20058;-65
2023/11/01 07:14:02;;;;;;;6.53;6.03;;;;;;;4.24;100.00;95269.72;5085580;28;20024;-65
2023/11/01 07:16:27;;;;;;;10.93;9.82;;;;;;;4.32;100.00;95258.72;5077423;28;20449;-66
2023/11/01 07:18:53;;;;;;;9.77;8.98;;;;;;;4.39;100.00;95249.50;5076976;28;20029;-66
2023/11/01 07:21:18;;;;;;;8.80;7.57;;;;;;;4.44;100.00;95250.00;5078942;28;20063;-65
2023/11/01 07:23:44;;;;;;;8.23;7.45;;;;;;;4.55;100.00;95256.16;5078081;28;20112;-66
2023/11/01 07:26:10;;;;;;;7.90;7.20;;;;;;;4.60;100.00;95256.66;5075929;28;20043;-65
2023/11/01 07:28:35;;;;;;;8.40;6.38;;;;;;;4.65;100.00;95256.31;5084087;28;20044;-65
2023/11/01 07:31:01;;;;;;;11.85;10.75;;;;;;;4.67;100.00;95254.41;5075040;28;20116;-66
2023/11/01 07:33:27;;;;;;;14.32;10.18;;;;;;;4.78;100.00;95249.22;5077596;28;20024;-65
2023/11/01 07:35:52;;;;;;;11.65;10.40;;;;;;;4.78;100.00;95249.22;5072670;28;20111;-65
2023/11/01 07:38:17;;;;;;;12.55;9.98;;;;;;;4.75;100.00;95244.22;5082569;28;20161;-65
2023/11/01 07:40:43;;;;;;;9.00;8.25;;;;;;;4.72;100.00;95239.25;5084434;28;20058;-65
2023/11/01 07:43:08;;;;;;;8.52;7.72;;;;;;;4.82;100.00;95245.44;5083197;28;20026;-65
2023/11/01 07:45:33;;;;;;;8.15;7.45;;;;;;;4.88;100.00;95250.16;5082678;28;20032;-66
2023/11/01 07:47:59;;;;;;;7.70;7.00;;;;;;;4.86;100.00;95246.84;5083104;28;20405;-66
2023/11/01 07:50:24;;;;;;;6.68;6.00;;;;;;;4.90;100.00;95247.44;5084528;28;20063;-66
2023/11/01 07:52:50;;;;;;;7.20;6.55;;;;;;;4.94;100.00;95248.88;5079927;28;20044;-66
2023/11/01 07:55:15;;;;;;;8.38;7.57;;;;;;;4.98;100.00;95249.47;5078716;28;20024;-65
2023/11/01 07:57:41;;;;;;;13.32;12.32;;;;;;;5.02;100.00;95243.88;5079036;28;20096;-66
2023/11/01 08:00:07;;;;;;;14.27;12.27;;;;;;;5.11;100.00;95244.13;5085362;28;20035;-66
2023/11/01 08:02:32;;;;;;;10.13;9.23;;;;;;;5.16;100.00;95248.03;5083955;28;20066;-66
2023/11/01 08:04:59;;;;;;;11.57;8.75;;;;;;;5.24;100.00;95255.25;5081092;28;20032;-66
2023/11/01 08:07:25;;;;;;;8.50;7.80;;;;;;;5.29;100.00;95247.09;5073725;28;20024;-65
2023/11/01 08:09:51;;;;;;;8.10;7.40;;;;;;;5.35;100.00;95257.03;5076159;28;20428;-66
2023/11/01 08:12:17;;;;;;;8.30;7.50;;;;;;;5.38;100.00;95254.19;5076203;28;20028;-66
2023/11/01 08:14:42;;;;;;;9.13;7.53;;;;;;;5.45;100.00;95246.69;5083926;28;20024;-66
2023/11/01 08:17:08;;;;;;;7.38;6.78;;;;;;;5.53;100.00;95248.72;5077872;28;20038;-66
2023/11/01 08:19:34;;;;;;;11.68;7.82;;;;;;;5.59;100.00;95241.22;5074225;28;20028;-66
2023/11/01 08:21:59;;;;;;;11.27;8.43;;;;;;;5.65;100.00;95246.91;5085632;28;20031;-66
2023/11/01 08:24:24;;;;;;;9.30;8.60;;;;;;;5.73;100.00;95237.50;5080232;28;20036;-66
2023/11/01 08:26:50;;;;;;;14.50;13.23;;;;;;;5.81;100.00;95242.13;5074065;28;20028;-66
2023/11/01 08:29:15;;;;;;;14.15;9.95;;;;;;;5.84;100.00;95235.78;5082644;28;20024;-66
2023/11/01 08:31:40;;;;;;;14.82;13.50;;;;;;;5.92;100.00;95237.78;5078405;28;20115;-66
2023/11/01 08:34:07;;;;;;;17.73;15.15;;;;;;;5.99;100.00;95236.34;5083066;28;20036;-65
2023/11/01 08:36:33;;;;;;;17.95;16.35;;;;;;;6.03;100.00;95235.19;5075954;28;20021;-65
2023/11/01 08:38:58;;;;;;;13.00;11.90;;;;;;;6.06;100.00;95234.09;5079014;28;20487;-68
2023/11/01 08:41:23;;;;;;;11.90;10.70;;;;;;;6.11;100.00;95237.97;5075222;28;20097;-68
2023/11/01 08:43:49;;;;;;;11.00;9.93;;;;;;;6.17;100.00;95231.44;5077333;28;20127;-67
2023/11/01 08:46:15;;;;;;;10.07;9.07;;;;;;;6.30;100.00;95224.25;5087137;28;20121;-65
2023/11/01 08:48:41;;;;;;;9.23;8.32;;;;;;;6.38;100.00;95212.31;5089069;28;20423;-64
2023/11/01 08:51:08;;;;;;;7.65;6.72;;;;;;;6.49;100.00;95207.00;5080622;28;20032;-65
2023/11/01 08:53:36;;;;;;;7.68;7.07;;;;;;;6.54;100.00;95210.09;5081656;28;20036;-65
2023/11/01 08:56:02;;;;;;;5.45;4.95;;;;;;;6.56;100.00;95205.56;5079316;28;20029;-66
2023/11/01 08:58:27;;;;;;;5.68;4.95;;;;;;;6.55;100.00;95210.91;5079071;28;20108;-66
2023/11/01 09:00:53;;;;;;;6.45;4.70;;;;;;;6.57;100.00;95216.81;5088434;28;20024;-67
2023/11/01 09:03:18;;;;;;;4.05;3.65;;;;;;;6.56;100.00;95216.00;5083959;28;20036;-67
2023/11/01 09:05:43;;;;;;;5.18;4.00;;;;;;;6.58;100.00;95223.72;5076442;28;20103;-67
2023/11/01 09:08:09;;;;;;;3.38;3.10;;;;;;;6.65;100.00;95244.97;5082538;28;20032;-67
2023/11/01 09:10:34;;;;;;;3.50;3.20;;;;;;;6.76;100.00;95244.06;5080072;28;20048;-67
2023/11/01 09:12:59;;;;;;;3.88;3.53;;;;;;;6.77;100.00;95241.31;5082081;28;20108;-67
2023/11/01 09:15:25;;;;;;;4.63;4.25;;;;;;;6.95;100.00;95230.22;5087567;28;20077;-67
2023/11/01 09:17:50;;;;;;;4.47;3.50;;;;;;;7.12;100.00;95241.91;5074114;28;20028;-66
2023/11/01 09:20:16;;;;;;;7.38;6.57;;;;;;;7.15;100.00;95242.44;5060333;28;20066;-66
2023/11/01 09:22:41;;;;;;;6.97;6.38;;;;;;;7.11;100.00;95242.84;5088745;28;20084;-66
2023/11/01 09:25:08;;;;;;;7.05;6.45;;;;;;;7.01;100.00;95241.00;5084254;28;20024;-67
2023/11/01 09:27:33;;;;;;;9.68;6.13;;;;;;;7.09;100.00;95240.34;5076381;28;20106;-67
2023/11/01 09:29:58;;;;;;;8.05;7.30;;;;;;;7.06;100.00;95243.25;5080724;28;20059;-67
2023/11/01 09:32:24;;;;;;;6.68;4.88;;;;;;;7.02;100.00;95234.81;5087782;28;20123;-66
2023/11/01 09:34:49;;;;;;;5.40;4.90;;;;;;;7.11;100.00;95235.81;5075218;28;20028;-66
2023/11/01 09:37:15;;;;;;;6.72;6.13;;;;;;;7.10;100.00;95235.97;5087968;28;20056;-66
2023/11/01 09:39:40;;;;;;;5.82;4.50;;;;;;;7.32;100.00;95229.69;5087241;28;20020;-65
2023/11/01 09:42:20;;;;;;;4.18;3.53;;;;;;;7.44;100.00;95235.66;5089486;28;20036;-66
2023/11/01 09:44:47;;;;;;;4.38;4.07;;;;;;;7.43;100.00;95229.59;5089941;28;20056;-66
2023/11/01 09:47:15;;;;;;;8.05;7.25;;;;;;;7.50;100.00;95224.63;5086883;28;20039;-66
2023/11/01 09:49:43;;;;;;;5.65;5.05;;;;;;;7.55;100.00;95214.59;5087043;28;20058;-66
2023/11/01 09:52:10;;;;;;;5.35;4.30;;;;;;;7.72;100.00;95212.25;5082952;28;20031;-66
2023/11/01 09:54:36;;;;;;;5.82;5.32;;;;;;;7.69;100.00;95207.28;5088737;28;20028;-67
2023/11/01 09:57:05;;;;;;;4.82;3.85;;;;;;;7.62;100.00;95196.53;5084209;28;20027;-66
2023/11/01 09:59:32;;;;;;;3.40;3.20;;;;;;;7.71;100.00;95190.50;5090021;28;20176;-67
2023/11/01 10:01:59;;;;;;;3.55;2.55;;;;;;;7.89;100.00;95171.47;5090615;28;20024;-66
2023/11/01 10:04:25;;;;;;;2.85;2.63;;;;;;;8.00;100.00;95168.69;5094606;28;20035;-66
2023/11/01 10:06:50;;;;;;;5.07;2.92;;;;;;;8.05;100.00;95154.34;5081928;28;20017;-66
2023/11/01 10:09:16;;;;;;;3.30;3.00;;;;;;;8.00;100.00;95152.97;5078906;28;20131;-68
2023/11/01 10:11:45;;;;;;;3.05;2.85;;;;;;;8.08;100.00;95140.97;5077922;28;20048;-67
2023/11/01 10:14:12;;;;;;;3.70;3.45;;;;;;;8.07;100.00;95147.16;5083864;28;20024;-66
2023/11/01 10:16:38;;;;;;;4.35;3.55;;;;;;;8.08;100.00;95140.97;5086389;28;20235;-67
2023/11/01 10:19:04;;;;;;;4.57;3.95;;;;;;;8.11;100.00;95131.00;5077815;28;20515;-66
2023/11/01 10:21:30;;;;;;;6.22;4.15;;;;;;;8.24;100.00;95112.34;5084471;28;20107;-67
2023/11/01 10:24:00;;;;;;;3.75;3.45;;;;;;;8.21;100.00;95131.00;5082368;28;20074;-67
2023/11/01 10:26:30;;;;;;;4.18;3.58;;;;;;;8.25;100.00;95116.63;5085158;28;20016;-67
2023/11/01 10:28:57;;;;;;;4.68;4.38;;;;;;;8.34;100.00;95107.06;5083080;28;20110;-67
2023/11/01 10:31:22;;;;;;;4.00;3.63;;;;;;;8.27;100.00;95133.03;5090100;28;20106;-66
2023/11/01 10:33:48;;;;;;;4.22;3.25;;;;;;;8.28;100.00;95137.31;5084951;28;20058;-67
2023/11/01 10:36:14;;;;;;;6.75;5.88;;;;;;;8.32;100.00;95136.09;5079735;28;20057;-67
2023/11/01 10:38:40;;;;;;;5.18;4.70;;;;;;;8.69;100.00;95141.53;5091058;28;20016;-66
2023/11/01 10:41:06;;;;;;;3.83;3.50;;;;;;;8.61;100.00;95155.34;5076860;28;20028;-68
2023/11/01 10:43:32;;;;;;;5.72;4.97;;;;;;;8.58;100.00;95179.25;5078872;28;20043;-66
2023/11/01 10:46:00;;;;;;;4.35;3.05;;;;;;;8.74;100.00;95171.63;5070808;28;20028;-67
2023/11/01 10:48:27;;;;;;;2.90;2.70;;;;;;;8.76;100.00;95173.28;5082844;28;20020;-66
2023/11/01 10:50:53;;;;;;;3.13;2.83;;;;;;;8.91;100.00;95184.97;5081775;28;20110;-65
2023/11/01 10:53:25;;;;;;;3.28;3.08;;;;;;;8.89;100.00;95190.34;5074984;28;20385;-65
2023/11/01 10:55:53;;;;;;;3.17;2.60;;;;;;;9.13;100.00;95196.88;5088803;28;20020;-67
2023/11/01 10:58:25;;;;;;;4.05;2.90;;;;;;;9.09;100.00;95219.16;5087563;28;20024;-68
2023/11/01 11:01:20;;;;;;;2.97;2.60;;;;;;;9.12;100.00;95220.69;5080514;28;20028;-67
2023/11/01 11:03:53;;;;;;;4.00;2.75;;;;;;;9.38;100.00;95217.38;5087758;28;20020;-65
2023/11/01 11:06:25;;;;;;;3.08;2.85;;;;;;;9.58;100.00;95216.31;5080216;28;20076;-67
2023/11/01 11:09:22;;;;;;;3.92;3.63;;;;;;;9.63;100.00;95213.25;5084053;28;20044;-68
2023/11/01 11:12:20;;;;;;;2.88;2.50;;;;;;;9.63;100.00;95209.78;5090676;28;20028;-65
2023/11/01 11:14:54;;;;;;;3.97;2.80;;;;;;;9.81;100.00;95204.53;5088627;28;20024;-67
2023/11/01 11:17:22;;;;;;;4.93;3.17;;;;;;;9.82;100.00;95186.00;5085695;28;20028;-67
2023/11/01 11:20:05;;;;;;;3.42;3.13;;;;;;;9.97;100.00;95193.38;5075711;28;20435;-67
2023/11/01 11:23:07;;;;;;;3.28;2.95;;;;;;;10.31;100.00;95195.28;5078752;28;20043;-67
2023/11/01 11:25:38;;;;;;;3.20;3.00;;;;;;;10.52;100.00;95196.78;5062680;28;20024;-67
2023/11/01 11:28:05;;;;;;;3.38;3.03;;;;;;;10.42;100.00;95194.25;5078094;28;20479;-67